This is the latest recevied weather packets stored in our database for station/object HK4K-15. If no packets are shown the sender has not sent any weather packets the latest 10 day(s).
| Time | Temp. | Humidity | Pressure | Rain* | Wind** | Luminosity | Snow |
|---|---|---|---|---|---|---|---|
| 1787496366 | 21.67° C | 67% | 1014 hPa | 0 mm | - | - | - |
| 1787495345 | 21.11° C | 69% | 1015 hPa | 0 mm | - | - | - |
| 1787494325 | 21.11° C | 70% | 1015 hPa | 0 mm | - | - | - |
| 1787493304 | 20.56° C | 73% | 1015 hPa | 0 mm | - | - | - |
| 1787492284 | 18.89° C | 83% | 1015 hPa | 0 mm | - | - | - |
| 1787491263 | 17.78° C | 90% | 1016 hPa | 0 mm | - | - | - |
| 1787490243 | 18.33° C | 90% | 1016 hPa | 0 mm | - | - | - |
| 1787489222 | 18.33° C | 90% | 1016 hPa | 0 mm | - | - | - |
| 1787488202 | 15.56° C | 97% | 1016 hPa | 0 mm | - | - | - |
| 1787487181 | 15.56° C | 97% | 1016 hPa | 0 mm | - | - | - |
| 1787486161 | 15.56° C | 97% | 1016 hPa | 0 mm | - | - | - |
| 1787485140 | 15.56° C | 97% | 1016 hPa | 0 mm | - | - | - |
| 1787484120 | 15.56° C | 97% | 1016 hPa | 0 mm | - | - | - |
| 1787483099 | 15.56° C | 97% | 1016 hPa | 0 mm | - | - | - |
| 1787482079 | 15.56° C | 97% | 1016 hPa | 0 mm | - | - | - |
| 1787481058 | 15.56° C | 97% | 1016 hPa | 0 mm | - | - | - |
| 1787480038 | 15.56° C | 97% | 1016 hPa | 0 mm | - | - | - |
| 1787479017 | 15.56° C | 97% | 1016 hPa | 0 mm | - | - | - |
| 1787477997 | 15.56° C | 97% | 1016 hPa | 0 mm | - | - | - |
| 1787476977 | 15.56° C | 97% | 1016 hPa | 0 mm | - | - | - |
| 1787475956 | 15.56° C | 97% | 1016 hPa | 0 mm | - | - | - |
| 1787474935 | 15.56° C | 97% | 1016 hPa | 0 mm | - | - | - |
| 1787473915 | 15.56° C | 97% | 1016 hPa | 0 mm | - | - | - |
| 1787472895 | 15.56° C | 96% | 1016 hPa | 0 mm | - | - | - |
| 1787471874 | 15.56° C | 95% | 1016 hPa | 0 mm | - | - | - |
* Rain latest hour (hover to see other rain measurements)
** Current wind speed in m/s (hover to see current wind gust speed)